Terminal Aerodrome Forecast
Issued by NWS Quad Cities IA IL

Home | Current Version | Previous Version | Text Only | Print | Product List | Glossary On
Versions: 1 2 3 4 5 6 7 8 9 10 11 12 13 14 15 16 17 18 19 20
000
FTUS43 KDVN 131100
TAFMLI
TAF
KMLI 131125Z 1312/1412 30004KT P6SM SKC
      TEMPO 1312/1313 5SM BR
     FM131400 34004KT P6SM FEW025
     FM131700 VRB03KT P6SM SCT035
     FM140000 15004KT P6SM SKC=

USA.gov is the U.S. government's official web portal to all federal, state and local government web resources and services.